createdAt,value
2023-03-29T00:00:35.540Z,96020.49
2023-03-29T00:03:19.148Z,96016.98
2023-03-29T00:05:49.554Z,96015.73
2023-03-29T00:08:21.898Z,96012.83
2023-03-29T00:10:53.794Z,96011.92
2023-03-29T00:13:24.334Z,96011.86
2023-03-29T00:15:55.828Z,96007.29
2023-03-29T00:18:26.550Z,96002.94
2023-03-29T00:20:57.947Z,96000.42
2023-03-29T00:23:28.304Z,95997.61
2023-03-29T00:25:59.193Z,96003.20
2023-03-29T00:28:30.117Z,96010.37
2023-03-29T00:31:08.495Z,96007.92
2023-03-29T00:33:40.292Z,96012.95
2023-03-29T00:36:14.458Z,96014.63
2023-03-29T00:38:47.779Z,96011.30
2023-03-29T00:41:17.998Z,96007.08
2023-03-29T00:43:57.401Z,95999.40
2023-03-29T00:46:29.869Z,95997.16
2023-03-29T00:49:04.599Z,95995.81
2023-03-29T00:51:36.313Z,95998.39
2023-03-29T00:54:07.398Z,95993.77
2023-03-29T00:56:39.485Z,95991.34
2023-03-29T00:59:13.702Z,95995.59
2023-03-29T01:01:50.486Z,95992.10
2023-03-29T01:04:25.520Z,95984.08
2023-03-29T01:07:00.258Z,95981.45
2023-03-29T01:09:32.782Z,95981.94
2023-03-29T01:12:06.750Z,95986.33
2023-03-29T01:14:42.676Z,95987.13
2023-03-29T01:17:13.193Z,95985.94
2023-03-29T01:19:47.709Z,95986.70
2023-03-29T01:22:25.756Z,95989.73
2023-03-29T01:25:14.669Z,95993.98
2023-03-29T01:28:01.402Z,95985.61
2023-03-29T01:30:34.339Z,95985.55
2023-03-29T01:33:07.266Z,95986.41
2023-03-29T01:35:43.548Z,95987.77
2023-03-29T01:38:18.447Z,95984.77
2023-03-29T01:40:49.532Z,95979.09
2023-03-29T01:43:25.283Z,95973.86
2023-03-29T01:46:02.415Z,95983.73
2023-03-29T01:48:34.151Z,95988.95
2023-03-29T01:51:10.993Z,95985.02
2023-03-29T01:53:41.741Z,95982.60
2023-03-29T01:56:14.426Z,95987.54
2023-03-29T01:58:48.007Z,95991.56
2023-03-29T02:01:20.893Z,95990.76
2023-03-29T02:03:54.353Z,95995.34
2023-03-29T02:06:27.516Z,95993.38
2023-03-29T02:08:58.084Z,95982.73
2023-03-29T02:11:30.193Z,95975.99
2023-03-29T02:14:00.881Z,95970.11
2023-03-29T02:16:39.182Z,95973.29
2023-03-29T02:19:11.982Z,95979.06
2023-03-29T02:21:48.045Z,95983.80
2023-03-29T02:24:19.869Z,95989.04
2023-03-29T02:26:54.064Z,95981.92
2023-03-29T02:29:26.065Z,95982.84
2023-03-29T02:32:02.299Z,95996.15
2023-03-29T02:34:37.541Z,95992.84
2023-03-29T02:37:12.835Z,95989.80
2023-03-29T02:39:51.537Z,95988.77
2023-03-29T02:42:30.042Z,95987.58
2023-03-29T02:45:06.372Z,95981.02
2023-03-29T02:47:47.426Z,95976.46
2023-03-29T02:50:22.786Z,95970.20
2023-03-29T02:53:02.998Z,95976.52
2023-03-29T02:55:41.610Z,95985.96
2023-03-29T02:58:30.377Z,95983.14
2023-03-29T03:01:14.814Z,95974.87
2023-03-29T03:04:08.380Z,95976.84
2023-03-29T03:07:05.880Z,95967.98
2023-03-29T03:10:16.516Z,95969.20
2023-03-29T03:13:25.239Z,95974.98
2023-03-29T03:16:31.650Z,95972.42
2023-03-29T03:19:22.096Z,95968.90
2023-03-29T03:22:03.078Z,95961.33
2023-03-29T03:24:41.563Z,95958.80
2023-03-29T03:27:30.878Z,95961.67
2023-03-29T03:30:17.295Z,95976.41
2023-03-29T03:32:51.425Z,95963.75
2023-03-29T03:35:32.373Z,95965.08
2023-03-29T03:38:17.082Z,95961.27
2023-03-29T03:40:55.572Z,95959.21
2023-03-29T03:43:31.675Z,95962.98
2023-03-29T03:46:04.982Z,95965.80
2023-03-29T03:48:39.567Z,95960.92
2023-03-29T03:51:13.562Z,95953.73
2023-03-29T03:53:46.989Z,95951.48
2023-03-29T03:56:20.248Z,95949.66
2023-03-29T03:58:52.497Z,95951.33
2023-03-29T04:01:24.637Z,95954.89
2023-03-29T04:04:05.616Z,95948.85
2023-03-29T04:06:42.480Z,95947.42
2023-03-29T04:09:17.011Z,95951.50
2023-03-29T04:12:06.027Z,95955.19
2023-03-29T04:14:37.705Z,95945.59
2023-03-29T04:17:11.948Z,95941.73
2023-03-29T04:19:45.584Z,95942.45
2023-03-29T04:22:25.808Z,95938.41
2023-03-29T04:24:58.334Z,95930.73
2023-03-29T04:27:29.067Z,95918.19
2023-03-29T04:30:06.284Z,95915.64
2023-03-29T04:32:42.686Z,95911.23
2023-03-29T04:35:15.007Z,95911.20
2023-03-29T04:37:52.268Z,95909.46
2023-03-29T04:40:27.222Z,95906.95
2023-03-29T04:43:02.368Z,95905.29
2023-03-29T04:45:39.093Z,95901.03
2023-03-29T04:48:16.050Z,95896.53
2023-03-29T04:50:51.275Z,95901.18
2023-03-29T04:53:26.522Z,95901.73
2023-03-29T04:55:59.550Z,95904.28
2023-03-29T04:58:32.507Z,95902.20
2023-03-29T05:01:11.953Z,95892.58
2023-03-29T05:03:49.479Z,95884.70
2023-03-29T05:06:26.213Z,95877.59
2023-03-29T05:09:01.189Z,95881.86
2023-03-29T05:11:36.268Z,95883.62
2023-03-29T05:14:09.360Z,95888.30
2023-03-29T05:16:51.886Z,95886.45
2023-03-29T05:19:25.240Z,95877.20
2023-03-29T05:22:06.593Z,95876.32
2023-03-29T05:24:44.214Z,95871.02
2023-03-29T05:27:22.695Z,95870.91
2023-03-29T05:30:22.659Z,95872.73
2023-03-29T05:33:07.198Z,95875.29
2023-03-29T05:35:44.171Z,95878.17
2023-03-29T05:38:16.756Z,95868.12
2023-03-29T05:40:49.871Z,95865.59
2023-03-29T05:43:27.567Z,95864.86
2023-03-29T05:46:03.764Z,95863.68
2023-03-29T05:48:35.828Z,95858.33
2023-03-29T05:51:10.070Z,95846.41
2023-03-29T05:53:43.062Z,95839.08
2023-03-29T05:56:15.737Z,95833.35
2023-03-29T05:58:49.342Z,95832.36
2023-03-29T06:01:22.263Z,95828.56
2023-03-29T06:03:57.503Z,95830.31
2023-03-29T06:06:27.896Z,95825.39
2023-03-29T06:09:00.861Z,95819.56
2023-03-29T06:11:33.079Z,95813.80
2023-03-29T06:14:04.312Z,95815.35
2023-03-29T06:16:36.240Z,95814.00
2023-03-29T06:19:07.279Z,95804.70
2023-03-29T06:21:37.620Z,95796.21
2023-03-29T06:24:13.161Z,95799.81
2023-03-29T06:26:43.868Z,95797.43
2023-03-29T06:29:16.369Z,95793.98
2023-03-29T06:31:50.530Z,95787.02
2023-03-29T06:34:24.531Z,95788.39
2023-03-29T06:36:56.289Z,95786.14
2023-03-29T06:39:31.287Z,95785.83
2023-03-29T06:42:10.103Z,95786.57
2023-03-29T06:44:49.277Z,95780.63
2023-03-29T06:47:18.492Z,95773.20
2023-03-29T06:49:48.895Z,95766.27
2023-03-29T06:52:19.573Z,95758.20
2023-03-29T06:54:51.642Z,95752.23
2023-03-29T06:57:21.222Z,95745.93
2023-03-29T06:59:53.014Z,95739.77
2023-03-29T07:02:25.299Z,95726.80
2023-03-29T07:05:01.123Z,95723.84
2023-03-29T07:07:55.370Z,95712.73
2023-03-29T07:10:31.935Z,95697.59
2023-03-29T07:13:03.640Z,95677.70
2023-03-29T07:15:40.180Z,95672.21
2023-03-29T07:18:15.963Z,95668.06
2023-03-29T07:20:52.717Z,95667.70
2023-03-29T07:23:25.592Z,95665.91
2023-03-29T07:25:57.981Z,95669.48
2023-03-29T07:28:29.666Z,95663.13
2023-03-29T07:31:10.739Z,95657.08
2023-03-29T07:33:44.832Z,95650.08
2023-03-29T07:36:16.806Z,95641.66
2023-03-29T07:38:55.145Z,95632.84
2023-03-29T07:41:30.038Z,95626.94
2023-03-29T07:44:05.210Z,95628.98
2023-03-29T07:46:38.395Z,95623.52
2023-03-29T07:49:22.036Z,95621.32
2023-03-29T07:51:58.863Z,95617.95
2023-03-29T07:54:34.632Z,95612.85
2023-03-29T07:57:12.221Z,95613.88
2023-03-29T07:59:45.689Z,95613.65
2023-03-29T08:02:18.119Z,95611.77
2023-03-29T08:05:12.093Z,95615.02
2023-03-29T08:07:44.454Z,95607.85
2023-03-29T08:10:32.209Z,95599.29
2023-03-29T08:13:07.848Z,95595.70
2023-03-29T08:15:41.849Z,95592.50
2023-03-29T08:18:18.135Z,95593.09
2023-03-29T08:20:48.911Z,95589.40
2023-03-29T08:23:24.830Z,95584.59
2023-03-29T08:25:57.010Z,95586.14
2023-03-29T08:28:30.337Z,95583.39
2023-03-29T08:31:04.831Z,95578.45
2023-03-29T08:33:43.233Z,95577.04
2023-03-29T08:36:19.091Z,95581.79
2023-03-29T08:38:51.687Z,95586.67
2023-03-29T08:41:33.077Z,95586.45
2023-03-29T08:44:16.383Z,95579.19
2023-03-29T08:46:54.437Z,95579.29
2023-03-29T08:49:29.004Z,95577.60
2023-03-29T08:52:03.665Z,95573.85
2023-03-29T08:54:42.678Z,95567.14
2023-03-29T08:57:31.664Z,95567.85
2023-03-29T09:00:06.080Z,95567.70
2023-03-29T09:02:38.126Z,95568.70
2023-03-29T09:05:23.626Z,95568.81
2023-03-29T09:07:55.070Z,95566.61
2023-03-29T09:10:44.499Z,95548.57
2023-03-29T09:13:26.367Z,95541.21
2023-03-29T09:16:07.185Z,95533.46
2023-03-29T09:18:55.807Z,95529.52
2023-03-29T09:21:29.248Z,95522.11
2023-03-29T09:24:27.852Z,95530.41
2023-03-29T09:27:02.561Z,95527.73
2023-03-29T09:30:03.477Z,95527.20
2023-03-29T09:32:38.790Z,95523.13
2023-03-29T09:35:19.172Z,95510.97
2023-03-29T09:37:53.308Z,95505.27
2023-03-29T09:40:29.391Z,95499.39
2023-03-29T09:43:05.458Z,95489.89
2023-03-29T09:45:38.108Z,95483.63
2023-03-29T09:48:14.800Z,95486.52
2023-03-29T09:50:49.533Z,95482.34
2023-03-29T09:53:22.484Z,95474.27
2023-03-29T09:55:55.075Z,95471.92
2023-03-29T09:58:28.721Z,95460.34
2023-03-29T10:01:03.587Z,95457.00
2023-03-29T10:03:34.809Z,95460.73
2023-03-29T10:06:11.924Z,95453.27
2023-03-29T10:08:45.480Z,95442.63
2023-03-29T10:11:22.989Z,95435.70
2023-03-29T10:13:56.946Z,95438.98
2023-03-29T10:16:42.455Z,95444.61
2023-03-29T10:19:27.406Z,95440.55
2023-03-29T10:21:59.901Z,95430.67
2023-03-29T10:24:32.267Z,95426.70
2023-03-29T10:27:16.985Z,95421.35
2023-03-29T10:30:01.960Z,95418.23
2023-03-29T10:32:35.603Z,95409.85
2023-03-29T10:35:11.543Z,95396.86
2023-03-29T10:37:46.274Z,95379.08
2023-03-29T10:40:27.214Z,95370.20
2023-03-29T10:43:01.569Z,95369.41
2023-03-29T10:45:37.900Z,95374.48
2023-03-29T10:48:15.335Z,95374.88
2023-03-29T10:51:01.770Z,95366.59
2023-03-29T10:53:37.761Z,95360.31
2023-03-29T10:56:40.306Z,95352.51
2023-03-29T10:59:27.096Z,95341.95
2023-03-29T11:02:40.081Z,95338.44
2023-03-29T11:05:20.686Z,95322.98
2023-03-29T11:08:10.022Z,95314.83
2023-03-29T11:10:50.468Z,95314.30
2023-03-29T11:13:32.706Z,95328.92
2023-03-29T11:16:18.114Z,95334.20
2023-03-29T11:19:11.763Z,95325.40
2023-03-29T11:21:46.561Z,95307.80
2023-03-29T11:24:35.550Z,95290.58
2023-03-29T11:27:23.154Z,95283.16
2023-03-29T11:30:08.792Z,95281.34
2023-03-29T11:32:47.568Z,95277.19
2023-03-29T11:35:37.260Z,95268.56
2023-03-29T11:38:17.058Z,95268.39
2023-03-29T11:40:57.656Z,95265.92
2023-03-29T11:43:31.922Z,95268.27
2023-03-29T11:46:11.711Z,95272.09
2023-03-29T11:48:48.352Z,95278.13
2023-03-29T11:51:24.571Z,95281.79
2023-03-29T11:54:01.479Z,95291.38
2023-03-29T11:56:36.596Z,95300.42
2023-03-29T11:59:14.510Z,95294.19
2023-03-29T12:01:51.853Z,95301.00
2023-03-29T12:04:26.767Z,95301.95
2023-03-29T12:07:10.257Z,95295.83
2023-03-29T12:09:42.755Z,95287.86
2023-03-29T12:12:18.820Z,95288.88
2023-03-29T12:15:01.558Z,95284.23
2023-03-29T12:17:40.275Z,95273.56
2023-03-29T12:20:20.592Z,95264.06
2023-03-29T12:22:52.024Z,95257.30
2023-03-29T12:25:27.553Z,95255.41
2023-03-29T12:28:20.065Z,95255.30
2023-03-29T12:31:00.228Z,95265.48
2023-03-29T12:33:52.967Z,95266.61
2023-03-29T12:36:44.459Z,95268.56
2023-03-29T12:39:19.192Z,95269.05
2023-03-29T12:41:54.136Z,95273.90
2023-03-29T12:44:27.559Z,95274.32
2023-03-29T12:47:02.751Z,95277.63
2023-03-29T12:49:45.200Z,95285.17
2023-03-29T12:52:29.874Z,95281.80
2023-03-29T12:55:19.062Z,95279.79
2023-03-29T12:58:05.701Z,95282.49
2023-03-29T13:00:46.446Z,95283.20
2023-03-29T13:03:47.174Z,95277.52
2023-03-29T13:07:04.495Z,95259.64
2023-03-29T13:09:50.971Z,95246.68
2023-03-29T13:12:27.458Z,95237.00
2023-03-29T13:15:05.432Z,95226.79
2023-03-29T13:17:48.494Z,95217.94
2023-03-29T13:20:38.786Z,95221.63
2023-03-29T13:23:26.464Z,95224.94
2023-03-29T13:26:24.107Z,95227.62
2023-03-29T13:29:12.945Z,95229.61
2023-03-29T13:32:04.553Z,95229.24
2023-03-29T13:34:50.458Z,95221.28
2023-03-29T13:37:31.895Z,95229.59
2023-03-29T13:40:27.522Z,95239.86
2023-03-29T13:43:20.378Z,95234.80
2023-03-29T13:46:26.901Z,95233.48
2023-03-29T13:49:01.406Z,95212.08
2023-03-29T13:54:59.188Z,95225.66
2023-03-29T13:57:49.004Z,95219.45
2023-03-29T14:00:28.483Z,95217.94
2023-03-29T14:03:06.031Z,95197.48
2023-03-29T14:05:50.789Z,95197.22
2023-03-29T14:10:29.240Z,95194.91
2023-03-29T14:13:05.264Z,95223.26
2023-03-29T14:15:47.364Z,95245.74
2023-03-29T14:18:24.040Z,95267.02
2023-03-29T14:20:56.938Z,95280.87
2023-03-29T14:23:32.680Z,95297.48
2023-03-29T14:26:16.574Z,95315.18
2023-03-29T14:28:52.015Z,95323.69
2023-03-29T14:31:31.902Z,95319.27
2023-03-29T14:34:07.406Z,95317.71
2023-03-29T14:36:44.023Z,95299.48
2023-03-29T14:39:18.431Z,95307.09
2023-03-29T14:41:54.588Z,95369.05
2023-03-29T14:44:30.443Z,95394.31
2023-03-29T14:47:07.282Z,95389.69
2023-03-29T14:49:41.853Z,95390.58
2023-03-29T14:52:16.985Z,95408.67
2023-03-29T14:54:52.470Z,95412.27
2023-03-29T14:57:29.490Z,95431.81
2023-03-29T15:00:16.235Z,95441.58
2023-03-29T15:02:59.029Z,95442.59
2023-03-29T15:05:41.581Z,95433.19
2023-03-29T15:08:22.803Z,95425.30
2023-03-29T15:11:00.471Z,95412.73
2023-03-29T15:13:35.897Z,95396.93
2023-03-29T15:16:13.531Z,95388.73
2023-03-29T15:18:55.409Z,95378.31
2023-03-29T15:21:33.934Z,95372.09
2023-03-29T15:24:19.418Z,95372.95
2023-03-29T15:27:06.001Z,95382.55
2023-03-29T15:29:43.880Z,95380.75
2023-03-29T15:32:26.622Z,95384.63
2023-03-29T15:35:06.163Z,95383.02
2023-03-29T15:37:40.288Z,95389.59
2023-03-29T15:40:19.237Z,95391.15
2023-03-29T15:42:54.336Z,95400.17
2023-03-29T15:45:28.695Z,95401.55
2023-03-29T15:48:06.068Z,95404.36
2023-03-29T15:50:40.208Z,95403.64
2023-03-29T15:53:15.801Z,95404.92
2023-03-29T15:55:53.532Z,95400.80
2023-03-29T15:58:30.182Z,95397.38
2023-03-29T16:01:11.609Z,95399.33
2023-03-29T16:03:48.019Z,95406.28
2023-03-29T16:06:24.558Z,95409.80
2023-03-29T16:08:58.662Z,95414.44
2023-03-29T16:11:33.282Z,95415.66
2023-03-29T16:14:12.345Z,95412.99
2023-03-29T16:16:46.362Z,95421.73
2023-03-29T16:19:20.787Z,95432.52
2023-03-29T16:21:55.944Z,95447.84
2023-03-29T16:24:31.819Z,95459.38
2023-03-29T16:27:05.530Z,95481.58
2023-03-29T16:29:39.728Z,95498.05
2023-03-29T16:32:15.031Z,95488.20
2023-03-29T16:34:49.399Z,95472.56
2023-03-29T16:37:28.996Z,95463.00
2023-03-29T16:40:03.177Z,95464.75
2023-03-29T16:42:37.185Z,95467.54
2023-03-29T16:45:16.180Z,95468.95
2023-03-29T16:47:51.191Z,95470.04
2023-03-29T16:50:26.335Z,95474.24
2023-03-29T16:53:00.854Z,95489.69
2023-03-29T16:55:35.236Z,95495.91
2023-03-29T16:58:11.858Z,95495.80
2023-03-29T17:00:48.476Z,95513.13
2023-03-29T17:03:22.946Z,95521.98
2023-03-29T17:05:58.512Z,95527.02
2023-03-29T17:08:32.893Z,95527.30
2023-03-29T17:11:08.146Z,95533.08
2023-03-29T17:13:42.591Z,95530.73
2023-03-29T17:16:19.200Z,95534.36
2023-03-29T17:18:53.476Z,95531.93
2023-03-29T17:21:29.712Z,95530.29
2023-03-29T17:24:07.573Z,95538.58
2023-03-29T17:26:43.251Z,95535.20
2023-03-29T17:29:18.578Z,95546.84
2023-03-29T17:31:52.817Z,95558.14
2023-03-29T17:34:29.519Z,95559.77
2023-03-29T17:37:04.273Z,95562.63
2023-03-29T17:39:42.626Z,95560.64
2023-03-29T17:42:17.718Z,95571.70
2023-03-29T17:44:51.566Z,95577.26
2023-03-29T17:47:25.826Z,95574.39
2023-03-29T17:49:59.980Z,95578.06
2023-03-29T17:52:35.801Z,95566.80
2023-03-29T17:55:13.989Z,95561.04
2023-03-29T17:57:53.972Z,95554.55
2023-03-29T18:00:28.237Z,95547.89
2023-03-29T18:03:03.594Z,95539.29
2023-03-29T18:05:38.972Z,95536.14
2023-03-29T18:08:14.122Z,95549.95
2023-03-29T18:10:52.756Z,95559.45
2023-03-29T18:13:27.988Z,95571.63
2023-03-29T18:16:07.489Z,95577.83
2023-03-29T18:18:42.060Z,95567.57
2023-03-29T18:21:16.634Z,95569.64
2023-03-29T18:23:53.858Z,95567.61
2023-03-29T18:26:30.302Z,95570.15
2023-03-29T18:29:04.226Z,95580.65
2023-03-29T18:31:40.871Z,95605.55
2023-03-29T18:34:13.384Z,95609.84
2023-03-29T18:36:51.259Z,95610.56
2023-03-29T18:39:28.247Z,95610.74
2023-03-29T18:42:02.211Z,95610.07
2023-03-29T18:44:37.758Z,95610.75
2023-03-29T18:47:20.129Z,95608.39
2023-03-29T18:49:58.484Z,95616.91
2023-03-29T18:52:34.787Z,95628.59
2023-03-29T18:55:10.858Z,95647.58
2023-03-29T18:57:45.203Z,95650.13
2023-03-29T19:00:20.708Z,95631.57
2023-03-29T19:02:55.591Z,95660.31
2023-03-29T19:05:30.174Z,95666.52
2023-03-29T19:08:11.773Z,95655.05
2023-03-29T19:10:46.391Z,95655.29
2023-03-29T19:13:24.777Z,95661.50
2023-03-29T19:15:58.909Z,95673.36
2023-03-29T19:18:34.695Z,95678.71
2023-03-29T19:21:09.087Z,95675.82
2023-03-29T19:23:44.072Z,95676.60
2023-03-29T19:26:19.904Z,95678.34
2023-03-29T19:28:54.085Z,95686.27
2023-03-29T19:31:28.610Z,95685.97
2023-03-29T19:34:07.204Z,95690.31
2023-03-29T19:36:43.401Z,95701.60
2023-03-29T19:39:17.465Z,95710.16
2023-03-29T19:41:51.960Z,95716.67
2023-03-29T19:44:26.089Z,95708.96
2023-03-29T19:47:01.838Z,95711.39
2023-03-29T19:49:36.856Z,95696.58
2023-03-29T19:52:24.531Z,95705.00
2023-03-29T19:54:59.012Z,95706.77
2023-03-29T19:57:34.107Z,95726.82
2023-03-29T20:00:10.816Z,95741.14
2023-03-29T20:02:46.581Z,95745.29
2023-03-29T20:05:23.296Z,95748.66
2023-03-29T20:07:57.951Z,95758.98
2023-03-29T20:10:34.476Z,95743.18
2023-03-29T20:13:10.475Z,95739.14
2023-03-29T20:15:44.694Z,95740.90
2023-03-29T20:18:18.926Z,95741.73
2023-03-29T20:20:54.006Z,95747.64
2023-03-29T20:23:32.327Z,95766.45
2023-03-29T20:26:10.314Z,95778.37
2023-03-29T20:28:44.568Z,95770.50
2023-03-29T20:31:22.790Z,95781.94
2023-03-29T20:33:57.638Z,95781.61
2023-03-29T20:36:33.679Z,95771.78
2023-03-29T20:39:19.066Z,95780.42
2023-03-29T20:42:10.679Z,95799.85
2023-03-29T20:45:01.142Z,95795.07
2023-03-29T20:47:44.178Z,95821.09
2023-03-29T20:50:19.788Z,95794.94
2023-03-29T20:52:54.874Z,95787.88
2023-03-29T20:55:31.061Z,95795.23
2023-03-29T20:58:07.998Z,95786.00
2023-03-29T21:00:43.642Z,95789.37
2023-03-29T21:03:18.799Z,95804.59
2023-03-29T21:05:58.893Z,95797.81
2023-03-29T21:08:32.961Z,95800.70
2023-03-29T21:11:09.585Z,95820.97
2023-03-29T21:13:44.751Z,95817.52
2023-03-29T21:16:18.686Z,95814.35
2023-03-29T21:18:53.107Z,95813.02
2023-03-29T21:21:27.277Z,95817.11
2023-03-29T21:24:02.846Z,95812.15
2023-03-29T21:26:37.754Z,95805.48
2023-03-29T21:29:12.000Z,95822.53
2023-03-29T21:31:46.271Z,95850.28
2023-03-29T21:34:23.157Z,95860.77
2023-03-29T21:36:55.431Z,95853.75
2023-03-29T21:39:31.538Z,95855.66
2023-03-29T21:42:05.616Z,95887.89
2023-03-29T21:44:39.386Z,95872.84
2023-03-29T21:47:13.304Z,95872.59
2023-03-29T21:49:48.177Z,95858.83
2023-03-29T21:52:22.119Z,95874.70
2023-03-29T21:54:55.992Z,95899.79
2023-03-29T21:57:30.046Z,95901.09
2023-03-29T22:00:05.702Z,95907.22
2023-03-29T22:02:39.800Z,95937.48
2023-03-29T22:05:14.228Z,95918.34
2023-03-29T22:07:50.972Z,95928.98
2023-03-29T22:10:24.867Z,95922.61
2023-03-29T22:12:58.762Z,95938.31
2023-03-29T22:15:36.082Z,95958.55
2023-03-29T22:18:10.818Z,95952.77
2023-03-29T22:20:45.437Z,95940.09
2023-03-29T22:23:19.282Z,95958.53
2023-03-29T22:25:53.130Z,95951.91
2023-03-29T22:28:28.995Z,95947.37
2023-03-29T22:31:07.417Z,95944.75
2023-03-29T22:33:46.934Z,95973.31
2023-03-29T22:36:22.549Z,95989.14
2023-03-29T22:38:57.849Z,96007.48
2023-03-29T22:41:31.887Z,96030.67
2023-03-29T22:44:06.201Z,96034.64
2023-03-29T22:46:39.947Z,96032.01
2023-03-29T22:49:13.624Z,96024.30
2023-03-29T22:51:47.526Z,96027.96
2023-03-29T22:54:21.239Z,96040.14
2023-03-29T22:56:55.657Z,96059.56
2023-03-29T22:59:31.644Z,96071.84
2023-03-29T23:02:05.809Z,96086.66
2023-03-29T23:04:39.704Z,96105.41
2023-03-29T23:07:14.231Z,96115.88
2023-03-29T23:09:47.923Z,96084.43
2023-03-29T23:12:21.642Z,96044.80
2023-03-29T23:14:56.381Z,96043.89
2023-03-29T23:17:30.816Z,96047.57
2023-03-29T23:20:06.814Z,96044.90
2023-03-29T23:22:40.713Z,96044.56
2023-03-29T23:25:14.926Z,96040.41
2023-03-29T23:27:48.973Z,96041.23
2023-03-29T23:30:24.345Z,96036.65
2023-03-29T23:32:58.595Z,96033.77
2023-03-29T23:35:32.761Z,96020.54
2023-03-29T23:38:09.805Z,96026.73
2023-03-29T23:40:43.170Z,96025.86
2023-03-29T23:43:17.494Z,96028.80
2023-03-29T23:45:52.678Z,96001.48
2023-03-29T23:48:26.443Z,96015.15
2023-03-29T23:51:01.567Z,96032.38
2023-03-29T23:53:35.762Z,96029.57
2023-03-29T23:56:10.619Z,96046.06
2023-03-29T23:58:45.067Z,96040.59
